aviador You're here:

KHSI Decoded Metar

HASTINGS in NE, USA
Report Time2017-10-21 15:01:00
UTC Time2017-10-21 15:39:11
Flight Rules vfr VFR
Wind230° at 11 Gusting to 21 kt
W.Decomp.*RWY 22: 11.0 kt HW 0.6 kt RCW
RWY 14: 1.3 kt HW 10.9 kt RCW
W.Rank230° ranks 22
Current wind is above 230° avg. (5.5)
Visibility9999 m
Phenomena:N/A
Clouds:Scattered 022 Hf
Broken 030 Hf
Broken 035 Hf
Expected CloudBase > 2,400 ft AGL from Temp-Dew spread
Ceiling3,000 ft
Temp19°C (ISA +8)
Dew Point13°C (68% RH)
AAT16.0°C
QNH1002 hPa
Density Alt3,435 ft
Elevation1,939 ft
Report Wrong Elevation
Raw Report
KHSI 211501Z AUTO 23011G21KT 10SM SCT022 BKN030 BKN035 19/13 A2960=

Extra information for KHSI:More info

Metar Taf Metar & Taf Last 4 Metars F.Rules Stats Wind Profile Meteogram Temp Stats Airport Information Weather charts Add Link Nearby VenuesMetar ALERT Operation Metar Decoded Social comments

AIRNAV info for KHSI